sensor_id;sensor_type;location;lat;lon;timestamp;P1;durP1;ratioP1;P2;durP2;ratioP2
5612;SDS011;63463;53.586;9.928;2022-12-24T00:00:18;26.30;;;14.13;;
5612;SDS011;63463;53.586;9.928;2022-12-24T00:02:44;34.73;;;14.30;;
5612;SDS011;63463;53.586;9.928;2022-12-24T00:05:10;33.40;;;13.87;;
5612;SDS011;63463;53.586;9.928;2022-12-24T00:07:36;30.20;;;12.60;;
5612;SDS011;63463;53.586;9.928;2022-12-24T00:10:03;27.47;;;14.40;;
5612;SDS011;63463;53.586;9.928;2022-12-24T00:12:29;31.10;;;13.40;;
5612;SDS011;63463;53.586;9.928;2022-12-24T00:14:55;29.27;;;12.73;;
5612;SDS011;63463;53.586;9.928;2022-12-24T00:17:21;36.43;;;14.73;;
5612;SDS011;63463;53.586;9.928;2022-12-24T00:19:47;31.87;;;13.80;;
5612;SDS011;63463;53.586;9.928;2022-12-24T00:22:14;30.03;;;14.17;;
5612;SDS011;63463;53.586;9.928;2022-12-24T00:24:40;33.83;;;13.77;;
5612;SDS011;63463;53.586;9.928;2022-12-24T00:27:06;34.00;;;14.60;;
5612;SDS011;63463;53.586;9.928;2022-12-24T00:29:32;28.43;;;12.83;;
5612;SDS011;63463;53.586;9.928;2022-12-24T00:31:58;30.97;;;13.50;;
5612;SDS011;63463;53.586;9.928;2022-12-24T00:34:24;28.60;;;14.20;;
5612;SDS011;63463;53.586;9.928;2022-12-24T00:36:50;28.00;;;13.83;;
5612;SDS011;63463;53.586;9.928;2022-12-24T00:39:16;31.37;;;13.90;;
5612;SDS011;63463;53.586;9.928;2022-12-24T00:41:43;25.63;;;12.80;;
5612;SDS011;63463;53.586;9.928;2022-12-24T00:44:09;36.93;;;14.80;;
5612;SDS011;63463;53.586;9.928;2022-12-24T00:46:36;33.13;;;13.80;;
5612;SDS011;63463;53.586;9.928;2022-12-24T00:49:03;35.60;;;14.17;;
5612;SDS011;63463;53.586;9.928;2022-12-24T00:51:30;34.20;;;14.03;;
5612;SDS011;63463;53.586;9.928;2022-12-24T00:53:56;34.13;;;13.97;;
5612;SDS011;63463;53.586;9.928;2022-12-24T00:56:22;29.67;;;13.37;;
5612;SDS011;63463;53.586;9.928;2022-12-24T00:58:48;26.63;;;13.93;;
5612;SDS011;63463;53.586;9.928;2022-12-24T01:01:14;38.40;;;14.47;;
5612;SDS011;63463;53.586;9.928;2022-12-24T01:03:40;28.80;;;13.63;;
5612;SDS011;63463;53.586;9.928;2022-12-24T01:06:08;29.87;;;13.20;;
5612;SDS011;63463;53.586;9.928;2022-12-24T01:08:35;40.67;;;14.77;;
5612;SDS011;63463;53.586;9.928;2022-12-24T01:11:01;30.73;;;13.87;;
5612;SDS011;63463;53.586;9.928;2022-12-24T01:13:28;35.90;;;14.17;;
5612;SDS011;63463;53.586;9.928;2022-12-24T01:15:54;33.23;;;14.33;;
5612;SDS011;63463;53.586;9.928;2022-12-24T01:18:20;34.47;;;15.50;;
5612;SDS011;63463;53.586;9.928;2022-12-24T01:20:55;41.50;;;14.17;;
5612;SDS011;63463;53.586;9.928;2022-12-24T01:23:21;36.63;;;13.20;;
5612;SDS011;63463;53.586;9.928;2022-12-24T01:25:47;34.90;;;13.20;;
5612;SDS011;63463;53.586;9.928;2022-12-24T01:28:13;33.17;;;12.77;;
5612;SDS011;63463;53.586;9.928;2022-12-24T01:30:39;39.53;;;13.20;;
5612;SDS011;63463;53.586;9.928;2022-12-24T01:33:06;33.93;;;15.23;;
5612;SDS011;63463;53.586;9.928;2022-12-24T01:35:32;37.07;;;13.80;;
5612;SDS011;63463;53.586;9.928;2022-12-24T01:37:57;35.17;;;13.97;;
5612;SDS011;63463;53.586;9.928;2022-12-24T01:40:24;35.70;;;13.23;;
5612;SDS011;63463;53.586;9.928;2022-12-24T01:43:14;28.10;;;14.00;;
5612;SDS011;63463;53.586;9.928;2022-12-24T01:48:15;28.50;;;13.13;;
5612;SDS011;63463;53.586;9.928;2022-12-24T01:50:42;45.27;;;14.30;;
5612;SDS011;63463;53.586;9.928;2022-12-24T01:53:08;31.70;;;13.90;;
5612;SDS011;63463;53.586;9.928;2022-12-24T01:55:35;32.70;;;14.00;;
5612;SDS011;63463;53.586;9.928;2022-12-24T01:58:01;38.20;;;14.10;;
5612;SDS011;63463;53.586;9.928;2022-12-24T02:00:28;28.73;;;12.30;;
5612;SDS011;63463;53.586;9.928;2022-12-24T02:02:54;40.10;;;13.80;;
5612;SDS011;63463;53.586;9.928;2022-12-24T02:05:25;35.17;;;14.10;;
5612;SDS011;63463;53.586;9.928;2022-12-24T02:07:52;30.40;;;13.53;;
5612;SDS011;63463;53.586;9.928;2022-12-24T02:10:18;36.43;;;14.70;;
5612;SDS011;63463;53.586;9.928;2022-12-24T02:12:44;30.87;;;13.23;;
5612;SDS011;63463;53.586;9.928;2022-12-24T02:15:12;32.00;;;13.60;;
5612;SDS011;63463;53.586;9.928;2022-12-24T02:17:42;35.03;;;14.10;;
5612;SDS011;63463;53.586;9.928;2022-12-24T02:20:21;27.97;;;12.80;;
5612;SDS011;63463;53.586;9.928;2022-12-24T02:28:15;31.23;;;13.27;;
5612;SDS011;63463;53.586;9.928;2022-12-24T02:30:47;25.90;;;12.50;;
5612;SDS011;63463;53.586;9.928;2022-12-24T02:36:04;28.70;;;12.93;;
5612;SDS011;63463;53.586;9.928;2022-12-24T02:38:32;39.00;;;13.57;;
5612;SDS011;63463;53.586;9.928;2022-12-24T02:43:26;30.13;;;13.00;;
5612;SDS011;63463;53.586;9.928;2022-12-24T02:45:56;28.13;;;12.70;;
5612;SDS011;63463;53.586;9.928;2022-12-24T02:48:23;30.83;;;12.60;;
5612;SDS011;63463;53.586;9.928;2022-12-24T02:50:54;25.03;;;11.83;;
5612;SDS011;63463;53.586;9.928;2022-12-24T02:53:20;26.13;;;12.03;;
5612;SDS011;63463;53.586;9.928;2022-12-24T02:56:01;30.50;;;13.70;;
5612;SDS011;63463;53.586;9.928;2022-12-24T03:11:53;23.93;;;11.33;;
5612;SDS011;63463;53.586;9.928;2022-12-24T03:14:20;33.43;;;12.43;;
5612;SDS011;63463;53.586;9.928;2022-12-24T03:16:46;41.90;;;13.77;;
5612;SDS011;63463;53.586;9.928;2022-12-24T03:19:12;38.83;;;13.07;;
5612;SDS011;63463;53.586;9.928;2022-12-24T03:21:38;23.73;;;12.27;;
5612;SDS011;63463;53.586;9.928;2022-12-24T03:24:06;30.40;;;12.80;;
5612;SDS011;63463;53.586;9.928;2022-12-24T03:26:33;23.77;;;12.03;;
5612;SDS011;63463;53.586;9.928;2022-12-24T03:28:59;26.20;;;12.07;;
5612;SDS011;63463;53.586;9.928;2022-12-24T03:31:38;28.40;;;11.70;;
5612;SDS011;63463;53.586;9.928;2022-12-24T03:34:04;23.30;;;11.17;;
5612;SDS011;63463;53.586;9.928;2022-12-24T03:36:30;23.07;;;11.90;;
5612;SDS011;63463;53.586;9.928;2022-12-24T03:38:56;29.70;;;12.33;;
5612;SDS011;63463;53.586;9.928;2022-12-24T03:41:22;26.70;;;12.53;;
5612;SDS011;63463;53.586;9.928;2022-12-24T03:43:48;25.70;;;12.70;;
5612;SDS011;63463;53.586;9.928;2022-12-24T03:46:14;25.83;;;12.07;;
5612;SDS011;63463;53.586;9.928;2022-12-24T03:48:40;31.40;;;12.50;;
5612;SDS011;63463;53.586;9.928;2022-12-24T03:51:13;28.00;;;13.07;;
5612;SDS011;63463;53.586;9.928;2022-12-24T03:53:41;24.60;;;12.30;;
5612;SDS011;63463;53.586;9.928;2022-12-24T03:56:06;27.83;;;12.17;;
5612;SDS011;63463;53.586;9.928;2022-12-24T03:58:32;35.97;;;11.73;;
5612;SDS011;63463;53.586;9.928;2022-12-24T04:00:58;28.50;;;12.23;;
5612;SDS011;63463;53.586;9.928;2022-12-24T04:03:24;27.17;;;11.80;;
5612;SDS011;63463;53.586;9.928;2022-12-24T04:06:00;29.23;;;11.60;;
5612;SDS011;63463;53.586;9.928;2022-12-24T04:08:26;19.10;;;11.03;;
5612;SDS011;63463;53.586;9.928;2022-12-24T04:10:52;19.20;;;11.30;;
5612;SDS011;63463;53.586;9.928;2022-12-24T04:13:18;26.03;;;11.63;;
5612;SDS011;63463;53.586;9.928;2022-12-24T04:15:44;25.70;;;11.20;;
5612;SDS011;63463;53.586;9.928;2022-12-24T04:18:10;30.27;;;12.33;;
5612;SDS011;63463;53.586;9.928;2022-12-24T04:20:36;20.63;;;10.20;;
5612;SDS011;63463;53.586;9.928;2022-12-24T04:23:02;27.30;;;11.00;;
5612;SDS011;63463;53.586;9.928;2022-12-24T04:25:28;21.53;;;10.70;;
5612;SDS011;63463;53.586;9.928;2022-12-24T04:27:54;18.80;;;10.47;;
5612;SDS011;63463;53.586;9.928;2022-12-24T04:30:20;17.13;;;10.90;;
5612;SDS011;63463;53.586;9.928;2022-12-24T04:32:46;25.13;;;10.90;;
5612;SDS011;63463;53.586;9.928;2022-12-24T04:35:12;21.80;;;11.23;;
5612;SDS011;63463;53.586;9.928;2022-12-24T04:37:38;21.87;;;10.53;;
5612;SDS011;63463;53.586;9.928;2022-12-24T04:40:04;20.00;;;10.27;;
5612;SDS011;63463;53.586;9.928;2022-12-24T04:42:30;16.80;;;9.33;;
5612;SDS011;63463;53.586;9.928;2022-12-24T04:44:56;16.83;;;9.70;;
5612;SDS011;63463;53.586;9.928;2022-12-24T04:47:22;15.57;;;9.50;;
5612;SDS011;63463;53.586;9.928;2022-12-24T04:49:48;19.77;;;10.50;;
5612;SDS011;63463;53.586;9.928;2022-12-24T04:52:14;22.37;;;10.80;;
5612;SDS011;63463;53.586;9.928;2022-12-24T04:54:40;24.90;;;9.97;;
5612;SDS011;63463;53.586;9.928;2022-12-24T04:57:06;16.83;;;10.40;;
5612;SDS011;63463;53.586;9.928;2022-12-24T04:59:32;17.60;;;10.13;;
5612;SDS011;63463;53.586;9.928;2022-12-24T05:01:58;14.53;;;9.60;;
5612;SDS011;63463;53.586;9.928;2022-12-24T05:04:24;18.50;;;10.00;;
5612;SDS011;63463;53.586;9.928;2022-12-24T05:06:50;20.03;;;10.77;;
5612;SDS011;63463;53.586;9.928;2022-12-24T05:09:16;18.00;;;9.77;;
5612;SDS011;63463;53.586;9.928;2022-12-24T05:11:42;19.53;;;10.20;;
5612;SDS011;63463;53.586;9.928;2022-12-24T05:14:08;20.00;;;10.63;;
5612;SDS011;63463;53.586;9.928;2022-12-24T05:16:34;19.33;;;10.50;;
5612;SDS011;63463;53.586;9.928;2022-12-24T05:19:00;19.77;;;10.00;;
5612;SDS011;63463;53.586;9.928;2022-12-24T05:21:26;18.90;;;9.80;;
5612;SDS011;63463;53.586;9.928;2022-12-24T05:23:52;18.17;;;10.50;;
5612;SDS011;63463;53.586;9.928;2022-12-24T05:26:43;19.33;;;9.80;;
5612;SDS011;63463;53.586;9.928;2022-12-24T05:29:11;18.83;;;10.37;;
5612;SDS011;63463;53.586;9.928;2022-12-24T05:31:37;14.80;;;10.03;;
5612;SDS011;63463;53.586;9.928;2022-12-24T05:34:04;17.93;;;9.87;;
5612;SDS011;63463;53.586;9.928;2022-12-24T05:36:30;14.93;;;9.83;;
5612;SDS011;63463;53.586;9.928;2022-12-24T05:38:57;19.03;;;9.83;;
5612;SDS011;63463;53.586;9.928;2022-12-24T05:41:23;21.03;;;10.30;;
5612;SDS011;63463;53.586;9.928;2022-12-24T05:43:49;23.50;;;11.03;;
5612;SDS011;63463;53.586;9.928;2022-12-24T05:46:16;17.77;;;10.10;;
5612;SDS011;63463;53.586;9.928;2022-12-24T05:48:42;16.90;;;10.17;;
5612;SDS011;63463;53.586;9.928;2022-12-24T05:51:11;19.33;;;9.93;;
5612;SDS011;63463;53.586;9.928;2022-12-24T05:53:37;19.10;;;10.03;;
5612;SDS011;63463;53.586;9.928;2022-12-24T05:58:29;22.63;;;10.63;;
5612;SDS011;63463;53.586;9.928;2022-12-24T06:00:55;20.93;;;10.47;;
5612;SDS011;63463;53.586;9.928;2022-12-24T06:03:21;21.17;;;10.73;;
5612;SDS011;63463;53.586;9.928;2022-12-24T06:05:47;20.63;;;10.90;;
5612;SDS011;63463;53.586;9.928;2022-12-24T06:08:13;16.47;;;9.90;;
5612;SDS011;63463;53.586;9.928;2022-12-24T06:10:39;19.07;;;10.50;;
5612;SDS011;63463;53.586;9.928;2022-12-24T06:13:05;23.57;;;11.57;;
5612;SDS011;63463;53.586;9.928;2022-12-24T06:15:31;18.80;;;9.87;;
5612;SDS011;63463;53.586;9.928;2022-12-24T06:17:57;20.20;;;10.50;;
5612;SDS011;63463;53.586;9.928;2022-12-24T06:20:23;16.13;;;10.77;;
5612;SDS011;63463;53.586;9.928;2022-12-24T06:22:49;17.90;;;10.60;;
5612;SDS011;63463;53.586;9.928;2022-12-24T06:25:15;14.10;;;9.07;;
5612;SDS011;63463;53.586;9.928;2022-12-24T06:27:41;22.40;;;10.73;;
5612;SDS011;63463;53.586;9.928;2022-12-24T06:30:07;18.07;;;10.83;;
5612;SDS011;63463;53.586;9.928;2022-12-24T06:32:33;17.83;;;10.33;;
5612;SDS011;63463;53.586;9.928;2022-12-24T06:34:59;18.23;;;10.50;;
5612;SDS011;63463;53.586;9.928;2022-12-24T06:37:25;17.10;;;9.80;;
5612;SDS011;63463;53.586;9.928;2022-12-24T06:39:51;16.90;;;9.73;;
5612;SDS011;63463;53.586;9.928;2022-12-24T06:42:17;16.30;;;9.70;;
5612;SDS011;63463;53.586;9.928;2022-12-24T06:44:43;17.60;;;10.87;;
5612;SDS011;63463;53.586;9.928;2022-12-24T06:47:09;18.20;;;9.33;;
5612;SDS011;63463;53.586;9.928;2022-12-24T06:49:35;17.43;;;10.20;;
5612;SDS011;63463;53.586;9.928;2022-12-24T06:52:01;17.23;;;9.23;;
5612;SDS011;63463;53.586;9.928;2022-12-24T06:54:26;18.13;;;9.63;;
5612;SDS011;63463;53.586;9.928;2022-12-24T06:56:52;14.80;;;9.97;;
5612;SDS011;63463;53.586;9.928;2022-12-24T06:59:18;18.07;;;10.07;;
5612;SDS011;63463;53.586;9.928;2022-12-24T07:01:44;16.67;;;8.77;;
5612;SDS011;63463;53.586;9.928;2022-12-24T07:04:10;17.77;;;9.83;;
5612;SDS011;63463;53.586;9.928;2022-12-24T07:06:36;15.10;;;9.70;;
5612;SDS011;63463;53.586;9.928;2022-12-24T07:09:02;16.77;;;9.17;;
5612;SDS011;63463;53.586;9.928;2022-12-24T07:11:28;14.50;;;9.40;;
5612;SDS011;63463;53.586;9.928;2022-12-24T07:13:54;14.43;;;8.97;;
5612;SDS011;63463;53.586;9.928;2022-12-24T07:16:20;16.13;;;8.67;;
5612;SDS011;63463;53.586;9.928;2022-12-24T07:18:46;15.93;;;8.40;;
5612;SDS011;63463;53.586;9.928;2022-12-24T07:21:12;14.23;;;9.33;;
5612;SDS011;63463;53.586;9.928;2022-12-24T07:23:38;12.67;;;8.77;;
5612;SDS011;63463;53.586;9.928;2022-12-24T07:26:05;17.80;;;9.67;;
5612;SDS011;63463;53.586;9.928;2022-12-24T07:28:31;13.40;;;9.23;;
5612;SDS011;63463;53.586;9.928;2022-12-24T07:30:57;14.93;;;8.90;;
5612;SDS011;63463;53.586;9.928;2022-12-24T07:33:24;11.70;;;8.87;;
5612;SDS011;63463;53.586;9.928;2022-12-24T07:35:57;18.17;;;10.40;;
5612;SDS011;63463;53.586;9.928;2022-12-24T07:38:24;13.07;;;9.60;;
5612;SDS011;63463;53.586;9.928;2022-12-24T07:40:50;14.70;;;9.40;;
5612;SDS011;63463;53.586;9.928;2022-12-24T07:43:16;12.40;;;8.90;;
5612;SDS011;63463;53.586;9.928;2022-12-24T07:45:42;13.50;;;9.50;;
5612;SDS011;63463;53.586;9.928;2022-12-24T07:48:07;18.60;;;10.13;;
5612;SDS011;63463;53.586;9.928;2022-12-24T07:50:33;12.43;;;8.37;;
5612;SDS011;63463;53.586;9.928;2022-12-24T07:52:59;11.70;;;8.20;;
5612;SDS011;63463;53.586;9.928;2022-12-24T07:55:25;12.77;;;9.00;;
5612;SDS011;63463;53.586;9.928;2022-12-24T07:57:51;15.17;;;8.87;;
5612;SDS011;63463;53.586;9.928;2022-12-24T08:00:17;12.03;;;8.57;;
5612;SDS011;63463;53.586;9.928;2022-12-24T08:02:44;13.10;;;8.60;;
5612;SDS011;63463;53.586;9.928;2022-12-24T08:05:09;10.00;;;8.40;;
5612;SDS011;63463;53.586;9.928;2022-12-24T08:07:38;13.83;;;8.20;;
5612;SDS011;63463;53.586;9.928;2022-12-24T08:10:04;11.60;;;8.07;;
5612;SDS011;63463;53.586;9.928;2022-12-24T08:12:30;12.00;;;8.10;;
5612;SDS011;63463;53.586;9.928;2022-12-24T08:14:56;12.33;;;8.50;;
5612;SDS011;63463;53.586;9.928;2022-12-24T08:17:22;10.40;;;7.60;;
5612;SDS011;63463;53.586;9.928;2022-12-24T08:19:48;9.07;;;7.40;;
5612;SDS011;63463;53.586;9.928;2022-12-24T08:22:14;9.57;;;7.80;;
5612;SDS011;63463;53.586;9.928;2022-12-24T08:24:40;8.03;;;7.20;;
5612;SDS011;63463;53.586;9.928;2022-12-24T08:27:06;10.33;;;8.13;;
5612;SDS011;63463;53.586;9.928;2022-12-24T08:29:32;8.83;;;7.90;;
5612;SDS011;63463;53.586;9.928;2022-12-24T08:31:58;9.77;;;8.13;;
5612;SDS011;63463;53.586;9.928;2022-12-24T08:34:24;9.70;;;8.20;;
5612;SDS011;63463;53.586;9.928;2022-12-24T08:36:50;10.20;;;7.97;;
5612;SDS011;63463;53.586;9.928;2022-12-24T08:39:16;9.73;;;7.70;;
5612;SDS011;63463;53.586;9.928;2022-12-24T08:41:42;12.10;;;7.80;;
5612;SDS011;63463;53.586;9.928;2022-12-24T08:44:08;9.50;;;7.97;;
5612;SDS011;63463;53.586;9.928;2022-12-24T08:46:34;9.17;;;8.17;;
5612;SDS011;63463;53.586;9.928;2022-12-24T08:49:00;10.70;;;8.00;;
5612;SDS011;63463;53.586;9.928;2022-12-24T08:51:26;11.47;;;7.67;;
5612;SDS011;63463;53.586;9.928;2022-12-24T08:53:52;11.60;;;7.87;;
5612;SDS011;63463;53.586;9.928;2022-12-24T08:56:17;11.43;;;8.70;;
5612;SDS011;63463;53.586;9.928;2022-12-24T08:58:43;11.63;;;8.00;;
5612;SDS011;63463;53.586;9.928;2022-12-24T09:01:11;9.50;;;8.30;;
5612;SDS011;63463;53.586;9.928;2022-12-24T09:03:37;8.80;;;7.93;;
5612;SDS011;63463;53.586;9.928;2022-12-24T09:06:03;9.13;;;7.70;;
5612;SDS011;63463;53.586;9.928;2022-12-24T09:08:30;12.93;;;7.50;;
5612;SDS011;63463;53.586;9.928;2022-12-24T09:11:01;12.37;;;9.70;;
5612;SDS011;63463;53.586;9.928;2022-12-24T09:13:27;10.70;;;8.37;;
5612;SDS011;63463;53.586;9.928;2022-12-24T09:15:53;11.33;;;8.40;;
5612;SDS011;63463;53.586;9.928;2022-12-24T09:18:20;22.10;;;8.47;;
5612;SDS011;63463;53.586;9.928;2022-12-24T09:20:46;11.90;;;9.50;;
5612;SDS011;63463;53.586;9.928;2022-12-24T09:23:12;11.90;;;9.23;;
5612;SDS011;63463;53.586;9.928;2022-12-24T09:25:41;10.17;;;8.27;;
5612;SDS011;63463;53.586;9.928;2022-12-24T09:28:08;11.07;;;9.30;;
5612;SDS011;63463;53.586;9.928;2022-12-24T09:30:35;10.33;;;9.33;;
5612;SDS011;63463;53.586;9.928;2022-12-24T09:33:01;14.00;;;9.67;;
5612;SDS011;63463;53.586;9.928;2022-12-24T09:35:27;13.47;;;9.40;;
5612;SDS011;63463;53.586;9.928;2022-12-24T09:37:53;11.60;;;8.90;;
5612;SDS011;63463;53.586;9.928;2022-12-24T09:40:32;13.10;;;9.93;;
5612;SDS011;63463;53.586;9.928;2022-12-24T09:43:00;14.50;;;9.67;;
5612;SDS011;63463;53.586;9.928;2022-12-24T09:45:29;13.70;;;9.40;;
5612;SDS011;63463;53.586;9.928;2022-12-24T09:48:04;17.40;;;9.57;;
5612;SDS011;63463;53.586;9.928;2022-12-24T09:50:41;13.77;;;9.40;;
5612;SDS011;63463;53.586;9.928;2022-12-24T09:55:49;11.53;;;8.83;;
5612;SDS011;63463;53.586;9.928;2022-12-24T09:58:21;10.50;;;8.87;;
5612;SDS011;63463;53.586;9.928;2022-12-24T10:00:48;14.50;;;9.67;;
5612;SDS011;63463;53.586;9.928;2022-12-24T10:03:15;9.43;;;8.43;;
5612;SDS011;63463;53.586;9.928;2022-12-24T10:05:50;12.30;;;9.00;;
5612;SDS011;63463;53.586;9.928;2022-12-24T10:11:06;13.50;;;8.73;;
5612;SDS011;63463;53.586;9.928;2022-12-24T10:16:10;13.10;;;8.87;;
5612;SDS011;63463;53.586;9.928;2022-12-24T10:26:47;11.77;;;9.40;;
5612;SDS011;63463;53.586;9.928;2022-12-24T10:31:14;17.67;;;10.10;;
5612;SDS011;63463;53.586;9.928;2022-12-24T10:33:41;16.43;;;10.40;;
5612;SDS011;63463;53.586;9.928;2022-12-24T10:36:09;13.60;;;9.13;;
5612;SDS011;63463;53.586;9.928;2022-12-24T10:38:37;13.37;;;9.30;;
5612;SDS011;63463;53.586;9.928;2022-12-24T10:41:03;19.37;;;10.27;;
5612;SDS011;63463;53.586;9.928;2022-12-24T10:43:29;29.03;;;10.77;;
5612;SDS011;63463;53.586;9.928;2022-12-24T10:45:56;16.13;;;10.80;;
5612;SDS011;63463;53.586;9.928;2022-12-24T10:50:57;12.77;;;10.47;;
5612;SDS011;63463;53.586;9.928;2022-12-24T10:53:27;13.03;;;9.50;;
5612;SDS011;63463;53.586;9.928;2022-12-24T10:56:00;15.97;;;9.93;;
5612;SDS011;63463;53.586;9.928;2022-12-24T10:58:26;18.40;;;9.33;;
5612;SDS011;63463;53.586;9.928;2022-12-24T11:00:52;11.47;;;9.17;;
5612;SDS011;63463;53.586;9.928;2022-12-24T11:03:20;10.97;;;9.00;;
5612;SDS011;63463;53.586;9.928;2022-12-24T11:06:04;12.27;;;9.13;;
5612;SDS011;63463;53.586;9.928;2022-12-24T11:08:30;10.77;;;9.10;;
5612;SDS011;63463;53.586;9.928;2022-12-24T11:13:28;14.87;;;9.70;;
5612;SDS011;63463;53.586;9.928;2022-12-24T11:16:09;13.37;;;9.60;;
5612;SDS011;63463;53.586;9.928;2022-12-24T11:18:44;16.97;;;9.63;;
5612;SDS011;63463;53.586;9.928;2022-12-24T11:21:10;12.87;;;10.27;;
5612;SDS011;63463;53.586;9.928;2022-12-24T11:23:36;13.03;;;8.93;;
5612;SDS011;63463;53.586;9.928;2022-12-24T11:26:02;12.53;;;9.60;;
5612;SDS011;63463;53.586;9.928;2022-12-24T11:28:29;16.20;;;10.17;;
5612;SDS011;63463;53.586;9.928;2022-12-24T11:30:58;12.47;;;10.03;;
5612;SDS011;63463;53.586;9.928;2022-12-24T11:33:24;13.60;;;10.20;;
5612;SDS011;63463;53.586;9.928;2022-12-24T11:35:52;12.50;;;9.47;;
5612;SDS011;63463;53.586;9.928;2022-12-24T11:38:22;20.17;;;10.00;;
5612;SDS011;63463;53.586;9.928;2022-12-24T11:40:55;16.90;;;10.20;;
5612;SDS011;63463;53.586;9.928;2022-12-24T11:43:22;16.60;;;10.33;;
5612;SDS011;63463;53.586;9.928;2022-12-24T11:45:49;17.40;;;10.10;;
5612;SDS011;63463;53.586;9.928;2022-12-24T11:48:48;13.37;;;9.70;;
5612;SDS011;63463;53.586;9.928;2022-12-24T11:51:18;17.27;;;10.50;;
5612;SDS011;63463;53.586;9.928;2022-12-24T11:53:49;14.10;;;9.87;;
5612;SDS011;63463;53.586;9.928;2022-12-24T11:59:02;18.17;;;10.03;;
5612;SDS011;63463;53.586;9.928;2022-12-24T12:01:36;19.73;;;10.23;;
5612;SDS011;63463;53.586;9.928;2022-12-24T12:04:14;15.00;;;9.93;;
5612;SDS011;63463;53.586;9.928;2022-12-24T12:06:42;19.67;;;10.53;;
5612;SDS011;63463;53.586;9.928;2022-12-24T12:09:26;26.00;;;10.77;;
5612;SDS011;63463;53.586;9.928;2022-12-24T12:11:55;21.43;;;11.00;;
5612;SDS011;63463;53.586;9.928;2022-12-24T12:14:27;19.60;;;10.47;;
5612;SDS011;63463;53.586;9.928;2022-12-24T12:17:02;29.77;;;11.97;;
5612;SDS011;63463;53.586;9.928;2022-12-24T12:19:33;23.07;;;11.33;;
5612;SDS011;63463;53.586;9.928;2022-12-24T12:22:01;18.77;;;11.17;;
5612;SDS011;63463;53.586;9.928;2022-12-24T12:24:31;26.43;;;11.27;;
5612;SDS011;63463;53.586;9.928;2022-12-24T12:27:03;19.30;;;10.57;;
5612;SDS011;63463;53.586;9.928;2022-12-24T12:29:34;22.83;;;10.90;;
5612;SDS011;63463;53.586;9.928;2022-12-24T12:32:03;24.53;;;11.60;;
5612;SDS011;63463;53.586;9.928;2022-12-24T12:34:31;23.37;;;12.53;;
5612;SDS011;63463;53.586;9.928;2022-12-24T12:37:01;21.90;;;12.40;;
5612;SDS011;63463;53.586;9.928;2022-12-24T12:39:30;28.63;;;13.13;;
5612;SDS011;63463;53.586;9.928;2022-12-24T12:55:17;24.30;;;11.77;;
5612;SDS011;63463;53.586;9.928;2022-12-24T12:57:47;35.07;;;12.93;;
5612;SDS011;63463;53.586;9.928;2022-12-24T13:00:17;32.90;;;12.60;;
5612;SDS011;63463;53.586;9.928;2022-12-24T13:02:50;27.13;;;12.40;;
5612;SDS011;63463;53.586;9.928;2022-12-24T13:10:31;23.77;;;12.30;;
5612;SDS011;63463;53.586;9.928;2022-12-24T13:15:33;19.53;;;12.00;;
5612;SDS011;63463;53.586;9.928;2022-12-24T13:30:44;36.13;;;11.47;;
5612;SDS011;63463;53.586;9.928;2022-12-24T13:35:56;29.00;;;10.30;;
5612;SDS011;63463;53.586;9.928;2022-12-24T13:40:52;49.57;;;11.83;;
5612;SDS011;63463;53.586;9.928;2022-12-24T13:43:19;25.73;;;10.27;;
5612;SDS011;63463;53.586;9.928;2022-12-24T13:45:49;33.50;;;9.63;;
5612;SDS011;63463;53.586;9.928;2022-12-24T13:50:51;32.77;;;9.93;;
5612;SDS011;63463;53.586;9.928;2022-12-24T13:55:56;44.53;;;9.87;;
5612;SDS011;63463;53.586;9.928;2022-12-24T13:58:23;54.63;;;10.40;;
5612;SDS011;63463;53.586;9.928;2022-12-24T14:00:53;30.10;;;9.80;;
5612;SDS011;63463;53.586;9.928;2022-12-24T14:05:47;39.00;;;9.90;;
5612;SDS011;63463;53.586;9.928;2022-12-24T14:08:15;42.03;;;10.70;;
5612;SDS011;63463;53.586;9.928;2022-12-24T14:10:55;29.80;;;9.53;;
5612;SDS011;63463;53.586;9.928;2022-12-24T14:18:34;16.90;;;8.60;;
5612;SDS011;63463;53.586;9.928;2022-12-24T14:21:02;30.77;;;9.67;;
5612;SDS011;63463;53.586;9.928;2022-12-24T14:23:30;30.77;;;10.60;;
5612;SDS011;63463;53.586;9.928;2022-12-24T14:25:59;33.47;;;11.30;;
5612;SDS011;63463;53.586;9.928;2022-12-24T14:28:28;29.43;;;8.83;;
5612;SDS011;63463;53.586;9.928;2022-12-24T14:31:01;25.80;;;8.13;;
5612;SDS011;63463;53.586;9.928;2022-12-24T14:33:30;26.87;;;8.53;;
5612;SDS011;63463;53.586;9.928;2022-12-24T14:35:57;24.67;;;8.70;;
5612;SDS011;63463;53.586;9.928;2022-12-24T14:38:24;20.60;;;7.87;;
5612;SDS011;63463;53.586;9.928;2022-12-24T14:48:52;19.67;;;8.77;;
5612;SDS011;63463;53.586;9.928;2022-12-24T14:56:16;45.10;;;8.13;;
5612;SDS011;63463;53.586;9.928;2022-12-24T14:58:42;27.83;;;8.37;;
5612;SDS011;63463;53.586;9.928;2022-12-24T15:06:28;30.13;;;9.30;;
5612;SDS011;63463;53.586;9.928;2022-12-24T15:08:57;34.17;;;8.70;;
5612;SDS011;63463;53.586;9.928;2022-12-24T15:11:24;27.93;;;8.63;;
5612;SDS011;63463;53.586;9.928;2022-12-24T15:13:54;48.63;;;10.37;;
5612;SDS011;63463;53.586;9.928;2022-12-24T15:16:28;46.77;;;10.20;;
5612;SDS011;63463;53.586;9.928;2022-12-24T15:18:59;26.33;;;9.57;;
5612;SDS011;63463;53.586;9.928;2022-12-24T15:21:30;28.47;;;9.50;;
5612;SDS011;63463;53.586;9.928;2022-12-24T15:23:57;36.60;;;10.93;;
5612;SDS011;63463;53.586;9.928;2022-12-24T15:26:30;38.77;;;10.43;;
5612;SDS011;63463;53.586;9.928;2022-12-24T15:28:57;33.00;;;9.47;;
5612;SDS011;63463;53.586;9.928;2022-12-24T15:31:24;38.07;;;10.07;;
5612;SDS011;63463;53.586;9.928;2022-12-24T15:33:51;28.07;;;9.13;;
5612;SDS011;63463;53.586;9.928;2022-12-24T15:36:26;34.40;;;8.60;;
5612;SDS011;63463;53.586;9.928;2022-12-24T15:38:53;33.97;;;11.77;;
5612;SDS011;63463;53.586;9.928;2022-12-24T15:43:46;41.07;;;11.83;;
5612;SDS011;63463;53.586;9.928;2022-12-24T15:46:23;44.97;;;14.27;;
5612;SDS011;63463;53.586;9.928;2022-12-24T15:48:51;39.60;;;13.00;;
5612;SDS011;63463;53.586;9.928;2022-12-24T15:51:22;35.90;;;13.77;;
5612;SDS011;63463;53.586;9.928;2022-12-24T15:53:48;47.37;;;14.97;;
5612;SDS011;63463;53.586;9.928;2022-12-24T15:56:31;35.93;;;13.03;;
5612;SDS011;63463;53.586;9.928;2022-12-24T16:01:43;42.50;;;11.90;;
5612;SDS011;63463;53.586;9.928;2022-12-24T16:04:11;47.80;;;12.70;;
5612;SDS011;63463;53.586;9.928;2022-12-24T16:06:49;34.17;;;12.20;;
5612;SDS011;63463;53.586;9.928;2022-12-24T16:09:29;53.63;;;12.47;;
5612;SDS011;63463;53.586;9.928;2022-12-24T16:11:55;44.33;;;9.93;;
5612;SDS011;63463;53.586;9.928;2022-12-24T16:14:21;41.67;;;12.93;;
5612;SDS011;63463;53.586;9.928;2022-12-24T16:16:48;42.63;;;12.53;;
5612;SDS011;63463;53.586;9.928;2022-12-24T16:19:48;45.70;;;13.77;;
5612;SDS011;63463;53.586;9.928;2022-12-24T16:22:08;53.80;;;10.90;;
5612;SDS011;63463;53.586;9.928;2022-12-24T16:24:54;36.13;;;9.40;;
5612;SDS011;63463;53.586;9.928;2022-12-24T16:27:19;38.73;;;11.03;;
5612;SDS011;63463;53.586;9.928;2022-12-24T16:29:45;32.10;;;10.47;;
5612;SDS011;63463;53.586;9.928;2022-12-24T16:32:31;20.03;;;10.00;;
5612;SDS011;63463;53.586;9.928;2022-12-24T16:34:57;25.47;;;11.10;;
5612;SDS011;63463;53.586;9.928;2022-12-24T16:37:23;21.07;;;9.00;;
5612;SDS011;63463;53.586;9.928;2022-12-24T16:39:49;24.87;;;9.10;;
5612;SDS011;63463;53.586;9.928;2022-12-24T16:42:16;27.77;;;8.80;;
5612;SDS011;63463;53.586;9.928;2022-12-24T16:45:01;26.43;;;10.27;;
5612;SDS011;63463;53.586;9.928;2022-12-24T16:47:28;38.50;;;10.20;;
5612;SDS011;63463;53.586;9.928;2022-12-24T16:49:56;25.80;;;10.43;;
5612;SDS011;63463;53.586;9.928;2022-12-24T16:52:23;23.70;;;9.57;;
5612;SDS011;63463;53.586;9.928;2022-12-24T16:54:53;22.70;;;9.27;;